Greenfield, Missouri
Current Conditions -  °F | °C
As of 11:52 PM on Tuesday 27 Jan 2015 (Local Time) from KSGF Reporting Station
Clear Clear  
Wind Chill: 40°   Ceiling: Unl
Heat Index: 46°   Visibility: 10mi
Dew Point: 28°   Wind: 14mph
Humidity: 50%   Direction: 140°SE
Pressure: 30.1"   Gusts: NA
Location:  37.42°N, 93.84°W
Report Text: KSGF 280552Z 14012KT 10SM CLR 08/M02 A3010 RMK AO2 SLP195 T00781022 10106 20039 401561017 58001
Loading
Personal Weather Stations






























Interactive Weather Map New forecast layout! Learn more

10-Day Weather Forecast

Advertisements
Track Severe Weather on mobile